sensor_id;sensor_type;location;lat;lon;timestamp;P1;durP1;ratioP1;P2;durP2;ratioP2
44145;SDS011;29809;52.432;4.780;2023-02-24T00:01:33;2.92;;;1.83;;
44145;SDS011;29809;52.432;4.780;2023-02-24T00:04:02;2.55;;;1.65;;
44145;SDS011;29809;52.432;4.780;2023-02-24T00:06:28;2.80;;;1.30;;
44145;SDS011;29809;52.432;4.780;2023-02-24T00:09:14;2.20;;;1.48;;
44145;SDS011;29809;52.432;4.780;2023-02-24T00:11:42;3.17;;;1.75;;
44145;SDS011;29809;52.432;4.780;2023-02-24T00:14:10;2.20;;;1.65;;
44145;SDS011;29809;52.432;4.780;2023-02-24T00:16:36;2.53;;;1.25;;
44145;SDS011;29809;52.432;4.780;2023-02-24T00:19:02;3.28;;;1.38;;
44145;SDS011;29809;52.432;4.780;2023-02-24T00:21:28;2.15;;;1.58;;
44145;SDS011;29809;52.432;4.780;2023-02-24T00:23:53;1.90;;;1.08;;
44145;SDS011;29809;52.432;4.780;2023-02-24T00:26:18;1.83;;;1.50;;
44145;SDS011;29809;52.432;4.780;2023-02-24T00:28:44;1.75;;;1.30;;
44145;SDS011;29809;52.432;4.780;2023-02-24T00:31:11;1.65;;;1.08;;
44145;SDS011;29809;52.432;4.780;2023-02-24T00:33:40;1.42;;;1.20;;
44145;SDS011;29809;52.432;4.780;2023-02-24T00:36:10;2.33;;;1.10;;
44145;SDS011;29809;52.432;4.780;2023-02-24T00:38:36;2.85;;;0.98;;
44145;SDS011;29809;52.432;4.780;2023-02-24T00:41:07;3.08;;;1.45;;
44145;SDS011;29809;52.432;4.780;2023-02-24T00:43:32;2.40;;;1.10;;
44145;SDS011;29809;52.432;4.780;2023-02-24T00:46:01;2.97;;;1.20;;
44145;SDS011;29809;52.432;4.780;2023-02-24T00:48:27;2.72;;;1.00;;
44145;SDS011;29809;52.432;4.780;2023-02-24T00:50:52;3.47;;;1.20;;
44145;SDS011;29809;52.432;4.780;2023-02-24T00:53:18;2.38;;;1.02;;
44145;SDS011;29809;52.432;4.780;2023-02-24T00:55:43;1.48;;;0.88;;
44145;SDS011;29809;52.432;4.780;2023-02-24T00:58:08;2.28;;;0.80;;
44145;SDS011;29809;52.432;4.780;2023-02-24T01:00:33;2.17;;;1.10;;
44145;SDS011;29809;52.432;4.780;2023-02-24T01:03:00;1.73;;;1.08;;
44145;SDS011;29809;52.432;4.780;2023-02-24T01:05:26;2.50;;;1.02;;
44145;SDS011;29809;52.432;4.780;2023-02-24T01:07:52;1.48;;;1.02;;
44145;SDS011;29809;52.432;4.780;2023-02-24T01:10:17;1.50;;;0.90;;
44145;SDS011;29809;52.432;4.780;2023-02-24T01:12:46;0.90;;;0.80;;
44145;SDS011;29809;52.432;4.780;2023-02-24T01:15:15;1.90;;;0.97;;
44145;SDS011;29809;52.432;4.780;2023-02-24T01:17:41;2.17;;;1.08;;
44145;SDS011;29809;52.432;4.780;2023-02-24T01:20:07;0.85;;;0.75;;
44145;SDS011;29809;52.432;4.780;2023-02-24T01:22:45;2.90;;;1.00;;
44145;SDS011;29809;52.432;4.780;2023-02-24T01:25:11;2.55;;;0.98;;
44145;SDS011;29809;52.432;4.780;2023-02-24T01:27:36;3.00;;;1.25;;
44145;SDS011;29809;52.432;4.780;2023-02-24T01:30:02;2.72;;;1.05;;
44145;SDS011;29809;52.432;4.780;2023-02-24T01:32:29;1.73;;;0.68;;
44145;SDS011;29809;52.432;4.780;2023-02-24T01:34:55;4.20;;;1.08;;
44145;SDS011;29809;52.432;4.780;2023-02-24T01:37:21;2.92;;;0.75;;
44145;SDS011;29809;52.432;4.780;2023-02-24T01:39:46;1.08;;;0.77;;
44145;SDS011;29809;52.432;4.780;2023-02-24T01:42:13;2.22;;;0.93;;
44145;SDS011;29809;52.432;4.780;2023-02-24T01:47:07;2.25;;;0.90;;
44145;SDS011;29809;52.432;4.780;2023-02-24T01:49:35;1.27;;;0.70;;
44145;SDS011;29809;52.432;4.780;2023-02-24T01:52:15;1.10;;;0.57;;
44145;SDS011;29809;52.432;4.780;2023-02-24T01:57:10;0.80;;;0.80;;
44145;SDS011;29809;52.432;4.780;2023-02-24T01:59:37;1.73;;;0.73;;
44145;SDS011;29809;52.432;4.780;2023-02-24T02:02:03;3.58;;;1.10;;
44145;SDS011;29809;52.432;4.780;2023-02-24T02:04:38;1.20;;;0.60;;
44145;SDS011;29809;52.432;4.780;2023-02-24T02:07:05;2.28;;;0.90;;
44145;SDS011;29809;52.432;4.780;2023-02-24T02:09:33;1.85;;;1.02;;
44145;SDS011;29809;52.432;4.780;2023-02-24T02:11:59;2.40;;;1.08;;
44145;SDS011;29809;52.432;4.780;2023-02-24T02:14:24;1.70;;;0.80;;
44145;SDS011;29809;52.432;4.780;2023-02-24T02:16:57;1.95;;;0.55;;
44145;SDS011;29809;52.432;4.780;2023-02-24T02:27:16;1.95;;;0.73;;
44145;SDS011;29809;52.432;4.780;2023-02-24T02:34:54;1.73;;;0.70;;
44145;SDS011;29809;52.432;4.780;2023-02-24T02:39:50;1.80;;;0.82;;
44145;SDS011;29809;52.432;4.780;2023-02-24T02:42:29;2.03;;;0.82;;
44145;SDS011;29809;52.432;4.780;2023-02-24T02:45:05;2.67;;;0.63;;
44145;SDS011;29809;52.432;4.780;2023-02-24T02:49:59;1.40;;;0.70;;
44145;SDS011;29809;52.432;4.780;2023-02-24T02:52:29;0.82;;;0.70;;
44145;SDS011;29809;52.432;4.780;2023-02-24T02:54:58;1.92;;;0.70;;
44145;SDS011;29809;52.432;4.780;2023-02-24T02:57:28;0.60;;;0.60;;
44145;SDS011;29809;52.432;4.780;2023-02-24T02:59:56;1.80;;;0.70;;
44145;SDS011;29809;52.432;4.780;2023-02-24T03:02:24;2.45;;;0.82;;
44145;SDS011;29809;52.432;4.780;2023-02-24T03:04:53;1.25;;;1.00;;
44145;SDS011;29809;52.432;4.780;2023-02-24T03:07:19;1.17;;;0.80;;
44145;SDS011;29809;52.432;4.780;2023-02-24T03:09:48;1.80;;;0.77;;
44145;SDS011;29809;52.432;4.780;2023-02-24T03:12:15;2.27;;;0.90;;
44145;SDS011;29809;52.432;4.780;2023-02-24T03:14:43;1.70;;;0.90;;
44145;SDS011;29809;52.432;4.780;2023-02-24T03:17:15;4.10;;;0.80;;
44145;SDS011;29809;52.432;4.780;2023-02-24T03:19:41;2.00;;;0.50;;
44145;SDS011;29809;52.432;4.780;2023-02-24T03:22:12;2.20;;;0.70;;
44145;SDS011;29809;52.432;4.780;2023-02-24T03:24:42;1.63;;;0.68;;
44145;SDS011;29809;52.432;4.780;2023-02-24T03:27:27;2.17;;;0.93;;
44145;SDS011;29809;52.432;4.780;2023-02-24T03:29:54;2.00;;;0.63;;
44145;SDS011;29809;52.432;4.780;2023-02-24T03:32:29;2.20;;;0.80;;
44145;SDS011;29809;52.432;4.780;2023-02-24T03:37:25;4.10;;;0.98;;
44145;SDS011;29809;52.432;4.780;2023-02-24T03:39:52;3.95;;;0.90;;
44145;SDS011;29809;52.432;4.780;2023-02-24T03:42:19;4.55;;;0.80;;
44145;SDS011;29809;52.432;4.780;2023-02-24T03:44:44;2.40;;;0.67;;
44145;SDS011;29809;52.432;4.780;2023-02-24T03:47:10;2.80;;;0.70;;
44145;SDS011;29809;52.432;4.780;2023-02-24T03:49:35;1.27;;;0.60;;
44145;SDS011;29809;52.432;4.780;2023-02-24T03:52:07;3.07;;;0.80;;
44145;SDS011;29809;52.432;4.780;2023-02-24T03:54:47;1.93;;;0.70;;
44145;SDS011;29809;52.432;4.780;2023-02-24T04:00:09;3.63;;;1.00;;
44145;SDS011;29809;52.432;4.780;2023-02-24T04:05:40;3.25;;;1.02;;
44145;SDS011;29809;52.432;4.780;2023-02-24T04:08:11;1.85;;;0.98;;
44145;SDS011;29809;52.432;4.780;2023-02-24T04:15:45;5.87;;;1.13;;
44145;SDS011;29809;52.432;4.780;2023-02-24T04:20:37;2.50;;;0.82;;
44145;SDS011;29809;52.432;4.780;2023-02-24T04:23:05;2.80;;;0.90;;
44145;SDS011;29809;52.432;4.780;2023-02-24T04:25:34;4.40;;;0.90;;
44145;SDS011;29809;52.432;4.780;2023-02-24T04:28:00;2.03;;;0.80;;
44145;SDS011;29809;52.432;4.780;2023-02-24T04:30:28;2.30;;;0.83;;
44145;SDS011;29809;52.432;4.780;2023-02-24T04:32:55;1.50;;;0.60;;
44145;SDS011;29809;52.432;4.780;2023-02-24T04:35:20;2.10;;;1.10;;
44145;SDS011;29809;52.432;4.780;2023-02-24T04:37:47;2.50;;;1.30;;
44145;SDS011;29809;52.432;4.780;2023-02-24T04:40:13;4.30;;;1.03;;
44145;SDS011;29809;52.432;4.780;2023-02-24T04:42:41;5.15;;;1.10;;
44145;SDS011;29809;52.432;4.780;2023-02-24T04:45:14;2.80;;;1.10;;
44145;SDS011;29809;52.432;4.780;2023-02-24T04:47:41;6.47;;;0.77;;
44145;SDS011;29809;52.432;4.780;2023-02-24T04:50:07;1.93;;;0.87;;
44145;SDS011;29809;52.432;4.780;2023-02-24T04:52:34;2.80;;;1.17;;
44145;SDS011;29809;52.432;4.780;2023-02-24T04:55:00;3.63;;;1.02;;
44145;SDS011;29809;52.432;4.780;2023-02-24T04:57:25;2.57;;;1.00;;
44145;SDS011;29809;52.432;4.780;2023-02-24T04:59:50;4.50;;;1.20;;
44145;SDS011;29809;52.432;4.780;2023-02-24T05:02:18;2.33;;;1.30;;
44145;SDS011;29809;52.432;4.780;2023-02-24T05:04:45;2.25;;;0.98;;
44145;SDS011;29809;52.432;4.780;2023-02-24T05:07:13;5.67;;;1.60;;
44145;SDS011;29809;52.432;4.780;2023-02-24T05:09:40;2.87;;;0.87;;
44145;SDS011;29809;52.432;4.780;2023-02-24T05:12:05;4.00;;;1.47;;
44145;SDS011;29809;52.432;4.780;2023-02-24T05:14:30;5.10;;;1.40;;
44145;SDS011;29809;52.432;4.780;2023-02-24T05:16:55;3.87;;;1.40;;
44145;SDS011;29809;52.432;4.780;2023-02-24T05:19:24;5.67;;;1.60;;
44145;SDS011;29809;52.432;4.780;2023-02-24T05:22:08;4.47;;;1.63;;
44145;SDS011;29809;52.432;4.780;2023-02-24T05:24:35;6.90;;;1.63;;
44145;SDS011;29809;52.432;4.780;2023-02-24T05:27:01;4.75;;;1.50;;
44145;SDS011;29809;52.432;4.780;2023-02-24T05:29:28;3.65;;;1.65;;
44145;SDS011;29809;52.432;4.780;2023-02-24T05:31:54;4.23;;;1.60;;
44145;SDS011;29809;52.432;4.780;2023-02-24T05:34:23;5.73;;;2.00;;
44145;SDS011;29809;52.432;4.780;2023-02-24T05:36:49;5.50;;;1.63;;
44145;SDS011;29809;52.432;4.780;2023-02-24T05:39:15;4.43;;;1.53;;
44145;SDS011;29809;52.432;4.780;2023-02-24T05:41:43;6.00;;;1.70;;
44145;SDS011;29809;52.432;4.780;2023-02-24T05:44:12;5.33;;;2.00;;
44145;SDS011;29809;52.432;4.780;2023-02-24T05:46:40;6.53;;;1.80;;
44145;SDS011;29809;52.432;4.780;2023-02-24T05:49:11;5.87;;;1.60;;
44145;SDS011;29809;52.432;4.780;2023-02-24T05:51:38;9.30;;;1.47;;
44145;SDS011;29809;52.432;4.780;2023-02-24T05:54:08;4.20;;;1.40;;
44145;SDS011;29809;52.432;4.780;2023-02-24T05:56:35;3.78;;;1.40;;
44145;SDS011;29809;52.432;4.780;2023-02-24T05:59:01;5.35;;;1.40;;
44145;SDS011;29809;52.432;4.780;2023-02-24T06:01:30;4.40;;;1.70;;
44145;SDS011;29809;52.432;4.780;2023-02-24T06:03:57;4.90;;;2.15;;
44145;SDS011;29809;52.432;4.780;2023-02-24T06:06:29;5.07;;;1.80;;
44145;SDS011;29809;52.432;4.780;2023-02-24T06:08:54;4.27;;;1.70;;
44145;SDS011;29809;52.432;4.780;2023-02-24T06:11:21;103.47;;;26.40;;
44145;SDS011;29809;52.432;4.780;2023-02-24T06:13:47;125.87;;;33.53;;
44145;SDS011;29809;52.432;4.780;2023-02-24T06:16:14;104.63;;;28.77;;
44145;SDS011;29809;52.432;4.780;2023-02-24T06:18:40;89.27;;;25.33;;
44145;SDS011;29809;52.432;4.780;2023-02-24T06:21:05;72.50;;;23.80;;
44145;SDS011;29809;52.432;4.780;2023-02-24T06:23:36;61.73;;;20.53;;
44145;SDS011;29809;52.432;4.780;2023-02-24T06:26:02;62.93;;;18.33;;
44145;SDS011;29809;52.432;4.780;2023-02-24T06:28:28;48.03;;;17.27;;
44145;SDS011;29809;52.432;4.780;2023-02-24T06:30:53;37.70;;;15.43;;
44145;SDS011;29809;52.432;4.780;2023-02-24T06:33:20;42.70;;;14.10;;
44145;SDS011;29809;52.432;4.780;2023-02-24T06:35:46;47.67;;;13.83;;
44145;SDS011;29809;52.432;4.780;2023-02-24T06:38:11;37.00;;;12.03;;
44145;SDS011;29809;52.432;4.780;2023-02-24T06:40:38;36.20;;;11.70;;
44145;SDS011;29809;52.432;4.780;2023-02-24T06:43:04;30.23;;;10.83;;
44145;SDS011;29809;52.432;4.780;2023-02-24T06:45:29;25.07;;;10.30;;
44145;SDS011;29809;52.432;4.780;2023-02-24T06:47:56;21.47;;;9.63;;
44145;SDS011;29809;52.432;4.780;2023-02-24T06:50:22;28.63;;;8.93;;
44145;SDS011;29809;52.432;4.780;2023-02-24T06:52:47;23.67;;;8.13;;
44145;SDS011;29809;52.432;4.780;2023-02-24T06:55:13;21.33;;;7.80;;
44145;SDS011;29809;52.432;4.780;2023-02-24T06:57:59;18.07;;;7.20;;
44145;SDS011;29809;52.432;4.780;2023-02-24T07:00:29;15.10;;;5.87;;
44145;SDS011;29809;52.432;4.780;2023-02-24T07:03:07;17.10;;;6.50;;
44145;SDS011;29809;52.432;4.780;2023-02-24T07:05:40;13.50;;;6.20;;
44145;SDS011;29809;52.432;4.780;2023-02-24T07:08:06;13.23;;;5.60;;
44145;SDS011;29809;52.432;4.780;2023-02-24T07:10:32;13.70;;;5.53;;
44145;SDS011;29809;52.432;4.780;2023-02-24T07:12:57;16.63;;;5.67;;
44145;SDS011;29809;52.432;4.780;2023-02-24T07:15:23;14.87;;;5.40;;
44145;SDS011;29809;52.432;4.780;2023-02-24T07:17:48;14.73;;;5.03;;
44145;SDS011;29809;52.432;4.780;2023-02-24T07:20:14;9.10;;;3.93;;
44145;SDS011;29809;52.432;4.780;2023-02-24T07:22:49;12.00;;;4.40;;
44145;SDS011;29809;52.432;4.780;2023-02-24T07:25:14;9.03;;;3.43;;
44145;SDS011;29809;52.432;4.780;2023-02-24T07:27:56;8.03;;;3.27;;
44145;SDS011;29809;52.432;4.780;2023-02-24T07:30:23;8.53;;;3.47;;
44145;SDS011;29809;52.432;4.780;2023-02-24T07:32:50;14.00;;;3.60;;
44145;SDS011;29809;52.432;4.780;2023-02-24T07:35:19;9.75;;;3.13;;
44145;SDS011;29809;52.432;4.780;2023-02-24T07:37:44;7.43;;;2.70;;
44145;SDS011;29809;52.432;4.780;2023-02-24T07:40:12;12.37;;;3.30;;
44145;SDS011;29809;52.432;4.780;2023-02-24T07:42:41;9.93;;;3.20;;
44145;SDS011;29809;52.432;4.780;2023-02-24T07:45:07;8.40;;;2.60;;
44145;SDS011;29809;52.432;4.780;2023-02-24T07:47:32;10.13;;;2.87;;
44145;SDS011;29809;52.432;4.780;2023-02-24T07:49:57;7.90;;;2.47;;
44145;SDS011;29809;52.432;4.780;2023-02-24T07:52:24;8.30;;;2.83;;
44145;SDS011;29809;52.432;4.780;2023-02-24T07:54:49;7.97;;;2.40;;
44145;SDS011;29809;52.432;4.780;2023-02-24T07:57:14;6.70;;;2.77;;
44145;SDS011;29809;52.432;4.780;2023-02-24T07:59:42;10.17;;;3.07;;
44145;SDS011;29809;52.432;4.780;2023-02-24T08:02:11;9.43;;;3.20;;
44145;SDS011;29809;52.432;4.780;2023-02-24T08:04:37;9.50;;;3.20;;
44145;SDS011;29809;52.432;4.780;2023-02-24T08:07:05;8.83;;;2.80;;
44145;SDS011;29809;52.432;4.780;2023-02-24T08:09:38;8.87;;;3.10;;
44145;SDS011;29809;52.432;4.780;2023-02-24T08:12:15;7.17;;;2.50;;
44145;SDS011;29809;52.432;4.780;2023-02-24T08:14:42;10.90;;;3.07;;
44145;SDS011;29809;52.432;4.780;2023-02-24T08:17:09;6.87;;;2.60;;
44145;SDS011;29809;52.432;4.780;2023-02-24T08:19:34;9.93;;;2.93;;
44145;SDS011;29809;52.432;4.780;2023-02-24T08:22:11;7.93;;;2.80;;
44145;SDS011;29809;52.432;4.780;2023-02-24T08:24:55;10.03;;;2.67;;
44145;SDS011;29809;52.432;4.780;2023-02-24T08:27:24;10.00;;;2.63;;
44145;SDS011;29809;52.432;4.780;2023-02-24T08:29:53;8.10;;;2.50;;
44145;SDS011;29809;52.432;4.780;2023-02-24T08:34:50;10.50;;;3.17;;
44145;SDS011;29809;52.432;4.780;2023-02-24T08:37:21;6.13;;;2.17;;
44145;SDS011;29809;52.432;4.780;2023-02-24T08:39:46;7.63;;;2.63;;
44145;SDS011;29809;52.432;4.780;2023-02-24T08:42:13;8.20;;;2.77;;
44145;SDS011;29809;52.432;4.780;2023-02-24T08:44:39;11.37;;;2.60;;
44145;SDS011;29809;52.432;4.780;2023-02-24T08:47:04;5.77;;;2.10;;
44145;SDS011;29809;52.432;4.780;2023-02-24T08:49:31;9.97;;;3.00;;
44145;SDS011;29809;52.432;4.780;2023-02-24T08:51:57;6.73;;;2.37;;
44145;SDS011;29809;52.432;4.780;2023-02-24T08:54:26;6.13;;;2.07;;
44145;SDS011;29809;52.432;4.780;2023-02-24T08:56:54;7.37;;;2.33;;
44145;SDS011;29809;52.432;4.780;2023-02-24T08:59:20;6.07;;;2.70;;
44145;SDS011;29809;52.432;4.780;2023-02-24T09:02:14;7.93;;;2.70;;
44145;SDS011;29809;52.432;4.780;2023-02-24T09:04:51;4.73;;;2.27;;
44145;SDS011;29809;52.432;4.780;2023-02-24T09:09:48;6.93;;;2.73;;
44145;SDS011;29809;52.432;4.780;2023-02-24T09:12:14;8.90;;;2.70;;
44145;SDS011;29809;52.432;4.780;2023-02-24T09:14:55;6.93;;;2.60;;
44145;SDS011;29809;52.432;4.780;2023-02-24T09:17:22;7.00;;;3.10;;
44145;SDS011;29809;52.432;4.780;2023-02-24T09:20:04;8.60;;;3.70;;
44145;SDS011;29809;52.432;4.780;2023-02-24T09:22:48;6.83;;;2.67;;
44145;SDS011;29809;52.432;4.780;2023-02-24T09:25:22;8.53;;;3.57;;
44145;SDS011;29809;52.432;4.780;2023-02-24T09:30:32;6.80;;;3.33;;
44145;SDS011;29809;52.432;4.780;2023-02-24T09:33:07;7.37;;;2.90;;
44145;SDS011;29809;52.432;4.780;2023-02-24T09:35:41;6.70;;;3.17;;
44145;SDS011;29809;52.432;4.780;2023-02-24T09:38:08;8.60;;;3.23;;
44145;SDS011;29809;52.432;4.780;2023-02-24T09:40:34;6.50;;;3.50;;
44145;SDS011;29809;52.432;4.780;2023-02-24T09:43:04;6.10;;;3.10;;
44145;SDS011;29809;52.432;4.780;2023-02-24T09:45:35;7.67;;;3.17;;
44145;SDS011;29809;52.432;4.780;2023-02-24T09:48:14;9.10;;;3.20;;
44145;SDS011;29809;52.432;4.780;2023-02-24T09:50:45;7.33;;;3.63;;
44145;SDS011;29809;52.432;4.780;2023-02-24T09:53:13;7.37;;;3.37;;
44145;SDS011;29809;52.432;4.780;2023-02-24T09:58:22;5.33;;;3.17;;
44145;SDS011;29809;52.432;4.780;2023-02-24T10:03:37;4.57;;;3.10;;
44145;SDS011;29809;52.432;4.780;2023-02-24T10:06:24;8.90;;;3.60;;
44145;SDS011;29809;52.432;4.780;2023-02-24T10:11:15;6.67;;;3.47;;
44145;SDS011;29809;52.432;4.780;2023-02-24T10:13:56;5.60;;;2.90;;
44145;SDS011;29809;52.432;4.780;2023-02-24T10:16:22;7.37;;;3.77;;
44145;SDS011;29809;52.432;4.780;2023-02-24T10:18:52;6.57;;;3.77;;
44145;SDS011;29809;52.432;4.780;2023-02-24T10:34:53;5.80;;;3.03;;
44145;SDS011;29809;52.432;4.780;2023-02-24T10:37:19;7.20;;;3.20;;
44145;SDS011;29809;52.432;4.780;2023-02-24T10:39:47;9.17;;;3.00;;
44145;SDS011;29809;52.432;4.780;2023-02-24T10:42:23;7.53;;;2.30;;
44145;SDS011;29809;52.432;4.780;2023-02-24T10:44:49;10.03;;;3.17;;
44145;SDS011;29809;52.432;4.780;2023-02-24T10:49:47;6.37;;;3.00;;
44145;SDS011;29809;52.432;4.780;2023-02-24T10:52:24;4.77;;;2.60;;
44145;SDS011;29809;52.432;4.780;2023-02-24T10:55:12;6.07;;;2.80;;
44145;SDS011;29809;52.432;4.780;2023-02-24T10:58:03;6.30;;;2.97;;
44145;SDS011;29809;52.432;4.780;2023-02-24T11:00:38;5.27;;;2.10;;
44145;SDS011;29809;52.432;4.780;2023-02-24T11:03:23;4.33;;;2.30;;
44145;SDS011;29809;52.432;4.780;2023-02-24T11:06:18;2.97;;;1.87;;
44145;SDS011;29809;52.432;4.780;2023-02-24T11:09:04;6.23;;;2.63;;
44145;SDS011;29809;52.432;4.780;2023-02-24T11:11:48;4.73;;;2.30;;
44145;SDS011;29809;52.432;4.780;2023-02-24T11:14:33;7.17;;;2.70;;
44145;SDS011;29809;52.432;4.780;2023-02-24T11:17:20;6.87;;;2.57;;
44145;SDS011;29809;52.432;4.780;2023-02-24T11:19:54;5.83;;;2.73;;
44145;SDS011;29809;52.432;4.780;2023-02-24T11:22:21;4.87;;;2.23;;
44145;SDS011;29809;52.432;4.780;2023-02-24T11:24:48;5.07;;;2.20;;
44145;SDS011;29809;52.432;4.780;2023-02-24T11:27:15;6.23;;;2.23;;
44145;SDS011;29809;52.432;4.780;2023-02-24T11:35:26;8.67;;;2.20;;
44145;SDS011;29809;52.432;4.780;2023-02-24T11:40:38;5.40;;;2.03;;
44145;SDS011;29809;52.432;4.780;2023-02-24T11:48:03;7.47;;;2.50;;
44145;SDS011;29809;52.432;4.780;2023-02-24T11:50:47;9.23;;;2.83;;
44145;SDS011;29809;52.432;4.780;2023-02-24T11:53:17;10.17;;;2.83;;
44145;SDS011;29809;52.432;4.780;2023-02-24T11:55:45;7.70;;;2.63;;
44145;SDS011;29809;52.432;4.780;2023-02-24T11:58:15;8.77;;;2.47;;
44145;SDS011;29809;52.432;4.780;2023-02-24T12:00:45;7.10;;;2.67;;
44145;SDS011;29809;52.432;4.780;2023-02-24T12:03:13;9.80;;;2.42;;
44145;SDS011;29809;52.432;4.780;2023-02-24T12:05:43;6.33;;;2.27;;
44145;SDS011;29809;52.432;4.780;2023-02-24T12:08:14;11.37;;;3.60;;
44145;SDS011;29809;52.432;4.780;2023-02-24T12:10:50;12.30;;;2.97;;
44145;SDS011;29809;52.432;4.780;2023-02-24T12:13:51;6.20;;;1.90;;
44145;SDS011;29809;52.432;4.780;2023-02-24T12:18:41;12.60;;;3.67;;
44145;SDS011;29809;52.432;4.780;2023-02-24T12:21:13;6.77;;;2.50;;
44145;SDS011;29809;52.432;4.780;2023-02-24T12:23:41;6.90;;;2.37;;
44145;SDS011;29809;52.432;4.780;2023-02-24T12:34:53;10.57;;;2.83;;
44145;SDS011;29809;52.432;4.780;2023-02-24T12:37:25;9.17;;;3.00;;
44145;SDS011;29809;52.432;4.780;2023-02-24T12:47:18;12.17;;;2.90;;
44145;SDS011;29809;52.432;4.780;2023-02-24T12:50:11;13.80;;;2.63;;
44145;SDS011;29809;52.432;4.780;2023-02-24T12:57:48;8.77;;;2.15;;
44145;SDS011;29809;52.432;4.780;2023-02-24T13:02:51;9.20;;;2.67;;
44145;SDS011;29809;52.432;4.780;2023-02-24T13:05:21;8.10;;;2.43;;
44145;SDS011;29809;52.432;4.780;2023-02-24T13:08:04;8.93;;;2.50;;
44145;SDS011;29809;52.432;4.780;2023-02-24T13:13:09;5.67;;;1.97;;
44145;SDS011;29809;52.432;4.780;2023-02-24T13:16:00;9.23;;;2.43;;
44145;SDS011;29809;52.432;4.780;2023-02-24T13:18:26;7.47;;;2.70;;
44145;SDS011;29809;52.432;4.780;2023-02-24T13:21:00;7.13;;;2.40;;
44145;SDS011;29809;52.432;4.780;2023-02-24T13:23:26;8.77;;;2.57;;
44145;SDS011;29809;52.432;4.780;2023-02-24T13:25:51;5.67;;;2.20;;
44145;SDS011;29809;52.432;4.780;2023-02-24T13:28:38;8.10;;;2.27;;
44145;SDS011;29809;52.432;4.780;2023-02-24T13:31:07;8.73;;;2.43;;
44145;SDS011;29809;52.432;4.780;2023-02-24T13:33:43;7.30;;;2.57;;
44145;SDS011;29809;52.432;4.780;2023-02-24T13:38:35;6.97;;;1.97;;
44145;SDS011;29809;52.432;4.780;2023-02-24T13:41:15;6.93;;;2.23;;
44145;SDS011;29809;52.432;4.780;2023-02-24T13:43:51;7.93;;;1.93;;
44145;SDS011;29809;52.432;4.780;2023-02-24T13:46:17;6.93;;;2.50;;
44145;SDS011;29809;52.432;4.780;2023-02-24T13:48:44;5.77;;;1.77;;
44145;SDS011;29809;52.432;4.780;2023-02-24T14:01:29;5.73;;;1.97;;
44145;SDS011;29809;52.432;4.780;2023-02-24T14:04:12;7.53;;;2.77;;
44145;SDS011;29809;52.432;4.780;2023-02-24T14:06:38;4.13;;;1.80;;
44145;SDS011;29809;52.432;4.780;2023-02-24T14:09:04;7.38;;;2.17;;
44145;SDS011;29809;52.432;4.780;2023-02-24T14:11:31;6.87;;;2.07;;
44145;SDS011;29809;52.432;4.780;2023-02-24T14:13:58;5.43;;;2.20;;
44145;SDS011;29809;52.432;4.780;2023-02-24T14:16:24;5.37;;;1.73;;
44145;SDS011;29809;52.432;4.780;2023-02-24T14:18:54;4.80;;;1.70;;
44145;SDS011;29809;52.432;4.780;2023-02-24T14:21:21;4.23;;;1.70;;
44145;SDS011;29809;52.432;4.780;2023-02-24T14:23:53;6.80;;;1.75;;
44145;SDS011;29809;52.432;4.780;2023-02-24T14:26:19;5.60;;;1.67;;
44145;SDS011;29809;52.432;4.780;2023-02-24T14:28:44;3.80;;;1.30;;
44145;SDS011;29809;52.432;4.780;2023-02-24T14:31:15;5.33;;;1.53;;
44145;SDS011;29809;52.432;4.780;2023-02-24T14:33:45;5.47;;;1.83;;
44145;SDS011;29809;52.432;4.780;2023-02-24T14:36:15;6.10;;;1.87;;
44145;SDS011;29809;52.432;4.780;2023-02-24T14:38:42;3.70;;;1.47;;
44145;SDS011;29809;52.432;4.780;2023-02-24T14:41:20;4.73;;;1.47;;
44145;SDS011;29809;52.432;4.780;2023-02-24T14:43:49;4.60;;;1.37;;
44145;SDS011;29809;52.432;4.780;2023-02-24T14:46:15;2.87;;;1.27;;
44145;SDS011;29809;52.432;4.780;2023-02-24T14:48:41;4.47;;;1.53;;
44145;SDS011;29809;52.432;4.780;2023-02-24T14:51:08;8.00;;;1.70;;
44145;SDS011;29809;52.432;4.780;2023-02-24T14:53:35;2.58;;;1.00;;
44145;SDS011;29809;52.432;4.780;2023-02-24T14:56:02;3.60;;;1.80;;
44145;SDS011;29809;52.432;4.780;2023-02-24T15:00:55;4.47;;;1.30;;
44145;SDS011;29809;52.432;4.780;2023-02-24T15:03:22;3.70;;;1.50;;
44145;SDS011;29809;52.432;4.780;2023-02-24T15:05:48;2.75;;;1.27;;
44145;SDS011;29809;52.432;4.780;2023-02-24T15:08:38;2.55;;;1.00;;
44145;SDS011;29809;52.432;4.780;2023-02-24T15:11:03;2.47;;;1.00;;
44145;SDS011;29809;52.432;4.780;2023-02-24T15:13:37;3.30;;;1.35;;
44145;SDS011;29809;52.432;4.780;2023-02-24T15:16:09;3.53;;;1.37;;
44145;SDS011;29809;52.432;4.780;2023-02-24T15:18:36;5.50;;;1.50;;
44145;SDS011;29809;52.432;4.780;2023-02-24T15:21:03;3.83;;;1.33;;
44145;SDS011;29809;52.432;4.780;2023-02-24T15:23:32;3.67;;;1.40;;
44145;SDS011;29809;52.432;4.780;2023-02-24T15:25:58;4.03;;;1.37;;
44145;SDS011;29809;52.432;4.780;2023-02-24T15:30:59;3.67;;;1.30;;
44145;SDS011;29809;52.432;4.780;2023-02-24T15:33:25;5.50;;;1.20;;
44145;SDS011;29809;52.432;4.780;2023-02-24T15:35:53;2.13;;;1.53;;
44145;SDS011;29809;52.432;4.780;2023-02-24T15:38:22;3.60;;;1.58;;
44145;SDS011;29809;52.432;4.780;2023-02-24T15:40:52;3.17;;;1.60;;
44145;SDS011;29809;52.432;4.780;2023-02-24T15:43:29;3.70;;;1.20;;
44145;SDS011;29809;52.432;4.780;2023-02-24T15:45:55;1.90;;;1.00;;
44145;SDS011;29809;52.432;4.780;2023-02-24T15:48:22;2.50;;;1.10;;
44145;SDS011;29809;52.432;4.780;2023-02-24T15:50:48;2.00;;;1.00;;
44145;SDS011;29809;52.432;4.780;2023-02-24T15:53:14;2.37;;;0.93;;
44145;SDS011;29809;52.432;4.780;2023-02-24T15:55:40;2.33;;;0.88;;
44145;SDS011;29809;52.432;4.780;2023-02-24T15:58:10;3.03;;;1.07;;
44145;SDS011;29809;52.432;4.780;2023-02-24T16:00:37;3.17;;;1.30;;
44145;SDS011;29809;52.432;4.780;2023-02-24T16:03:02;5.70;;;1.23;;
44145;SDS011;29809;52.432;4.780;2023-02-24T16:05:28;2.60;;;1.20;;
44145;SDS011;29809;52.432;4.780;2023-02-24T16:07:53;3.03;;;1.00;;
44145;SDS011;29809;52.432;4.780;2023-02-24T16:10:20;3.20;;;1.50;;
44145;SDS011;29809;52.432;4.780;2023-02-24T16:12:55;3.17;;;1.52;;
44145;SDS011;29809;52.432;4.780;2023-02-24T16:15:22;4.70;;;1.40;;
44145;SDS011;29809;52.432;4.780;2023-02-24T16:17:48;4.83;;;1.50;;
44145;SDS011;29809;52.432;4.780;2023-02-24T16:20:15;2.53;;;1.42;;
44145;SDS011;29809;52.432;4.780;2023-02-24T16:22:41;2.75;;;1.08;;
44145;SDS011;29809;52.432;4.780;2023-02-24T16:25:06;4.67;;;1.30;;
44145;SDS011;29809;52.432;4.780;2023-02-24T16:27:32;4.00;;;1.50;;
44145;SDS011;29809;52.432;4.780;2023-02-24T16:29:57;4.27;;;1.67;;
44145;SDS011;29809;52.432;4.780;2023-02-24T16:32:22;2.07;;;1.03;;
44145;SDS011;29809;52.432;4.780;2023-02-24T16:34:49;3.75;;;1.38;;
44145;SDS011;29809;52.432;4.780;2023-02-24T16:37:21;5.00;;;1.50;;
44145;SDS011;29809;52.432;4.780;2023-02-24T16:39:47;6.27;;;1.70;;
44145;SDS011;29809;52.432;4.780;2023-02-24T16:42:13;3.83;;;1.55;;
44145;SDS011;29809;52.432;4.780;2023-02-24T16:44:39;3.83;;;1.23;;
44145;SDS011;29809;52.432;4.780;2023-02-24T16:47:04;5.70;;;1.25;;
44145;SDS011;29809;52.432;4.780;2023-02-24T16:49:30;7.15;;;1.63;;
44145;SDS011;29809;52.432;4.780;2023-02-24T16:51:56;5.90;;;1.95;;
44145;SDS011;29809;52.432;4.780;2023-02-24T16:54:21;8.80;;;1.50;;
44145;SDS011;29809;52.432;4.780;2023-02-24T16:56:47;3.25;;;1.40;;
44145;SDS011;29809;52.432;4.780;2023-02-24T16:59:13;3.53;;;1.70;;
44145;SDS011;29809;52.432;4.780;2023-02-24T17:01:38;13.38;;;1.73;;
44145;SDS011;29809;52.432;4.780;2023-02-24T17:04:05;3.78;;;1.48;;
44145;SDS011;29809;52.432;4.780;2023-02-24T17:06:33;3.92;;;1.50;;
44145;SDS011;29809;52.432;4.780;2023-02-24T17:08:58;4.70;;;1.45;;